Time;durP1;ratioP1;P1;durP2;ratioP2;P2;SDS_P1;SDS_P2;PMS_P1;PMS_P2;Temp;Humidity;BMP_temperature;BMP_pressure;BME280_temperature;BME280_humidity;BME280_pressure;Samples;Min_cycle;Max_cycle;Signal;HPM_P1;HPM_P2
2023/05/24 04:45:44;;;;;;;10.70;5.32;;;;;;;12.81;100.00;96447.06;6217294;23;20024;-91
2023/05/24 04:48:11;;;;;;;14.07;5.40;;;;;;;12.74;100.00;96444.28;6184841;23;20008;-89
2023/05/24 04:58:33;;;;;;;13.27;5.90;;;;;;;12.64;100.00;96452.41;6008396;23;20018;-89
2023/05/24 05:01:00;;;;;;;12.68;5.38;;;;;;;12.68;100.00;96447.59;5986674;23;20007;-89
2023/05/24 05:03:26;;;;;;;15.30;6.17;;;;;;;12.67;100.00;96448.56;5987072;23;20027;-89
2023/05/24 05:05:52;;;;;;;14.00;5.83;;;;;;;12.42;100.00;96450.44;6124801;23;20005;-89
2023/05/24 05:08:21;;;;;;;12.43;5.43;;;;;;;12.84;100.00;96452.84;6161267;23;20016;-89
2023/05/24 05:10:51;;;;;;;7.45;3.85;;;;;;;12.49;100.00;96454.88;6184741;23;20041;-89
2023/05/24 05:13:18;;;;;;;11.83;5.23;;;;;;;12.78;100.00;96463.25;6161070;23;20011;-89
2023/05/24 05:15:50;;;;;;;12.93;5.60;;;;;;;12.85;100.00;96461.59;6186633;23;20009;-89
2023/05/24 05:18:34;;;;;;;12.03;5.20;;;;;;;12.92;100.00;96460.75;6160639;23;20013;-89
2023/05/24 05:21:01;;;;;;;15.30;5.68;;;;;;;12.97;100.00;96465.53;6168385;23;20015;-90
2023/05/24 05:23:29;;;;;;;13.60;6.43;;;;;;;13.09;100.00;96466.81;6112781;23;20037;-89
2023/05/24 05:25:58;;;;;;;10.13;5.27;;;;;;;13.01;100.00;96468.66;6179831;23;20009;-89
2023/05/24 05:28:30;;;;;;;14.23;6.97;;;;;;;13.29;100.00;96464.66;6186411;23;20029;-89
2023/05/24 05:30:57;;;;;;;14.13;6.00;;;;;;;13.23;100.00;96459.19;6137587;23;20417;-89
2023/05/24 05:33:24;;;;;;;16.07;5.40;;;;;;;12.63;100.00;96458.63;6160367;23;20291;-89
2023/05/24 05:35:50;;;;;;;14.03;4.93;;;;;;;13.02;100.00;96459.75;6161270;23;20341;-89
2023/05/24 05:38:18;;;;;;;13.67;5.73;;;;;;;12.91;100.00;96461.75;6186256;23;20005;-89
2023/05/24 05:40:45;;;;;;;13.57;4.83;;;;;;;12.97;100.00;96454.97;6161301;23;20028;-89
2023/05/24 05:43:29;;;;;;;10.80;5.33;;;;;;;13.18;100.00;96446.50;6185187;23;20044;-90
2023/05/24 05:45:59;;;;;;;16.30;6.10;;;;;;;13.46;100.00;96448.75;6184616;23;20013;-90
2023/05/24 05:48:43;;;;;;;12.57;5.47;;;;;;;13.16;100.00;96445.84;6160774;23;20009;-89
2023/05/24 05:51:32;;;;;;;13.20;5.13;;;;;;;13.32;100.00;96447.66;6136046;23;20020;-89
2023/05/24 05:54:35;;;;;;;13.80;5.33;;;;;;;13.24;100.00;96440.56;6161363;23;20009;-89
2023/05/24 05:57:02;;;;;;;10.97;4.73;;;;;;;13.42;100.00;96438.50;6160326;23;20005;-89
2023/05/24 05:59:28;;;;;;;11.60;4.80;;;;;;;13.43;100.00;96436.69;6186755;23;20068;-89
2023/05/24 06:01:54;;;;;;;11.87;4.60;;;;;;;13.50;100.00;96439.47;6170895;23;20023;-90
2023/05/24 06:04:25;;;;;;;12.80;4.80;;;;;;;13.45;100.00;96434.72;6199729;23;20059;-89
2023/05/24 06:06:51;;;;;;;13.10;5.10;;;;;;;13.83;100.00;96440.94;6160020;23;20036;-89
2023/05/24 06:09:17;;;;;;;10.53;4.23;;;;;;;13.89;100.00;96442.06;6135397;23;20004;-89
2023/05/24 06:11:47;;;;;;;13.40;4.70;;;;;;;13.86;100.00;96445.88;6111288;23;20009;-89
2023/05/24 06:14:20;;;;;;;13.13;5.00;;;;;;;14.05;100.00;96449.06;6136688;23;20021;-88
2023/05/24 06:16:51;;;;;;;11.23;4.17;;;;;;;14.08;100.00;96446.06;6112162;23;20020;-89
2023/05/24 06:19:22;;;;;;;14.27;5.30;;;;;;;13.74;100.00;96455.19;6157481;23;20036;-89
2023/05/24 06:21:52;;;;;;;15.63;6.53;;;;;;;13.53;100.00;96457.63;6160056;23;20071;-89
2023/05/24 06:24:20;;;;;;;13.40;5.43;;;;;;;13.84;100.00;96453.16;6136421;23;20004;-89
2023/05/24 06:26:47;;;;;;;12.10;4.27;;;;;;;14.29;100.00;96445.44;6161029;23;20004;-89
2023/05/24 06:29:24;;;;;;;12.20;4.50;;;;;;;14.47;100.00;96451.22;6135574;23;20084;-89
2023/05/24 06:31:50;;;;;;;12.43;4.80;;;;;;;14.25;100.00;96449.41;6160739;23;20484;-88
2023/05/24 06:34:17;;;;;;;15.33;4.50;;;;;;;14.38;100.00;96454.94;6136076;23;20012;-89
2023/05/24 06:36:46;;;;;;;12.00;4.40;;;;;;;14.31;100.00;96454.81;6162329;23;20013;-89
2023/05/24 06:39:12;;;;;;;17.53;5.20;;;;;;;14.34;100.00;96459.75;6142814;23;20001;-89
2023/05/24 06:41:38;;;;;;;13.67;5.27;;;;;;;14.33;100.00;96452.84;6146072;23;20413;-89
2023/05/24 06:44:04;;;;;;;12.93;4.87;;;;;;;14.60;100.00;96463.91;6145771;23;20009;-89
2023/05/24 06:46:30;;;;;;;14.20;5.10;;;;;;;14.40;100.00;96458.25;6137520;23;20023;-89
2023/05/24 06:48:55;;;;;;;16.17;5.40;;;;;;;14.47;100.00;96464.47;6165330;23;20004;-89
2023/05/24 06:51:21;;;;;;;9.90;4.97;;;;;;;14.53;100.00;96469.09;6165142;23;20004;-89
2023/05/24 06:53:47;;;;;;;13.83;5.20;;;;;;;14.66;100.00;96467.66;6165474;23;20009;-89
2023/05/24 06:56:12;;;;;;;11.90;5.23;;;;;;;14.89;100.00;96467.59;6164745;23;20054;-89
2023/05/24 06:58:38;;;;;;;13.60;4.43;;;;;;;14.82;100.00;96468.34;6165177;23;20009;-89
2023/05/24 07:01:03;;;;;;;10.27;4.50;;;;;;;14.82;100.00;96463.03;6165434;23;20011;-87
2023/05/24 07:03:30;;;;;;;11.70;4.93;;;;;;;14.73;100.00;96474.69;6164859;23;20000;-87
2023/05/24 07:05:56;;;;;;;11.53;4.63;;;;;;;14.62;100.00;96485.72;6165425;23;20005;-88
2023/05/24 07:08:25;;;;;;;15.80;5.00;;;;;;;14.56;100.00;96486.44;6165427;23;20028;-88
2023/05/24 07:10:52;;;;;;;13.00;4.57;;;;;;;14.53;100.00;96492.91;6166405;23;20091;-88
2023/05/24 07:13:18;;;;;;;10.43;4.40;;;;;;;14.70;100.00;96490.94;6167338;23;20009;-87
2023/05/24 07:15:45;;;;;;;12.83;4.60;;;;;;;14.77;100.00;96485.75;6192596;23;20058;-88
2023/05/24 07:18:11;;;;;;;15.47;5.50;;;;;;;14.76;100.00;96498.19;6167121;23;20008;-88
2023/05/24 07:20:37;;;;;;;10.90;3.67;;;;;;;14.76;100.00;96495.53;6176043;23;20005;-88
2023/05/24 07:23:03;;;;;;;12.37;5.47;;;;;;;14.70;100.00;96490.94;6175968;23;20036;-87
2023/05/24 07:25:30;;;;;;;14.03;4.67;;;;;;;14.70;100.00;96495.41;6172202;23;20035;-88
2023/05/24 07:27:55;;;;;;;11.73;4.50;;;;;;;15.05;100.00;96499.22;6166830;23;20027;-89
2023/05/24 07:30:21;;;;;;;13.03;4.33;;;;;;;15.00;100.00;96497.13;6167694;23;20004;-88
2023/05/24 07:32:47;;;;;;;12.47;4.67;;;;;;;15.45;100.00;96499.78;6167124;23;20000;-88
2023/05/24 07:35:12;;;;;;;11.17;4.20;;;;;;;15.63;100.00;96492.31;6166429;23;20040;-88
2023/05/24 07:37:39;;;;;;;14.30;4.83;;;;;;;15.86;100.00;96501.97;6167907;23;20264;-88
2023/05/24 07:40:09;;;;;;;12.30;4.00;;;;;;;15.66;100.00;96512.31;6168166;23;20511;-88
2023/05/24 07:42:34;;;;;;;11.40;4.03;;;;;;;16.20;100.00;96504.03;6167056;23;20001;-88
2023/05/24 07:45:00;;;;;;;11.97;3.90;;;;;;;15.76;100.00;96519.03;6167874;23;20024;-88
2023/05/24 07:47:26;;;;;;;12.80;4.20;;;;;;;15.33;100.00;96513.50;6162181;23;20008;-88
2023/05/24 07:49:52;;;;;;;12.03;4.93;;;;;;;15.50;100.00;96513.34;6161933;23;20008;-88
2023/05/24 07:52:17;;;;;;;10.53;3.77;;;;;;;15.85;100.00;96516.25;6162051;23;20024;-88
2023/05/24 07:54:43;;;;;;;15.80;4.50;;;;;;;15.48;100.00;96518.81;6163581;23;20016;-88
2023/05/24 07:57:08;;;;;;;12.37;3.67;;;;;;;14.96;100.00;96518.84;6170282;23;20000;-88
2023/05/24 07:59:34;;;;;;;11.87;4.50;;;;;;;15.31;100.00;96517.34;6181132;23;20009;-89
2023/05/24 08:02:04;;;;;;;12.07;4.47;;;;;;;15.45;100.00;96523.66;6161993;23;20005;-88
2023/05/24 08:04:32;;;;;;;12.43;4.27;;;;;;;15.52;100.00;96521.91;6161838;23;20005;-88
2023/05/24 08:07:00;;;;;;;15.27;4.50;;;;;;;15.37;100.00;96526.41;6161743;23;20007;-88
2023/05/24 08:09:26;;;;;;;14.70;3.90;;;;;;;15.26;100.00;96539.09;6161592;23;20032;-88
2023/05/24 08:11:52;;;;;;;12.20;3.27;;;;;;;15.28;100.00;96531.78;6161316;23;20004;-88
2023/05/24 08:14:18;;;;;;;10.23;3.80;;;;;;;15.34;100.00;96524.94;6161687;23;20054;-89
2023/05/24 08:16:43;;;;;;;11.23;3.87;;;;;;;15.13;100.00;96525.66;6161596;23;20012;-88
2023/05/24 08:19:09;;;;;;;19.10;4.90;;;;;;;14.83;100.00;96527.41;6161608;23;20012;-88
2023/05/24 08:21:36;;;;;;;10.93;4.67;;;;;;;15.10;100.00;96523.34;6161129;23;20075;-88
2023/05/24 08:24:01;;;;;;;12.10;3.90;;;;;;;15.41;100.00;96528.50;6161436;23;20005;-88
2023/05/24 08:26:27;;;;;;;9.90;4.80;;;;;;;14.94;100.00;96529.63;6162049;23;20547;-88
2023/05/24 08:28:53;;;;;;;12.30;4.83;;;;;;;15.39;100.00;96532.31;6166575;23;20005;-88
2023/05/24 08:31:20;;;;;;;12.27;4.47;;;;;;;14.43;100.00;96539.09;6161472;23;20005;-88
2023/05/24 08:33:49;;;;;;;13.33;4.80;;;;;;;14.96;100.00;96529.44;6161378;23;20091;-88
2023/05/24 08:36:16;;;;;;;15.70;4.93;;;;;;;14.93;100.00;96530.63;6161757;23;20004;-88
2023/05/24 08:38:41;;;;;;;9.57;4.23;;;;;;;14.84;100.00;96532.50;6160740;23;20005;-87
2023/05/24 08:41:10;;;;;;;9.70;4.17;;;;;;;15.42;100.00;96531.97;6159759;23;20104;-88
2023/05/24 08:43:37;;;;;;;15.60;4.90;;;;;;;15.27;100.00;96534.63;6161403;23;20039;-87
2023/05/24 08:46:04;;;;;;;11.13;4.47;;;;;;;15.62;100.00;96534.88;6161320;23;20092;-88
2023/05/24 08:48:30;;;;;;;13.30;4.90;;;;;;;15.17;100.00;96549.94;6166507;23;20047;-88
2023/05/24 08:50:59;;;;;;;11.60;4.50;;;;;;;15.31;100.00;96549.94;6191808;23;20011;-88
2023/05/24 08:53:25;;;;;;;14.53;4.43;;;;;;;15.71;100.00;96552.38;6164301;23;20016;-87
2023/05/24 08:55:53;;;;;;;15.00;5.47;;;;;;;15.42;100.00;96553.97;6165058;23;20001;-88
2023/05/24 08:58:21;;;;;;;14.60;4.60;;;;;;;14.85;100.00;96531.53;6165643;23;20012;-88
2023/05/24 09:00:47;;;;;;;13.10;4.73;;;;;;;15.66;100.00;96534.41;6166131;23;20320;-88
2023/05/24 09:03:13;;;;;;;11.27;4.20;;;;;;;16.04;100.00;96534.25;6166158;23;20013;-88
2023/05/24 09:05:40;;;;;;;13.63;4.73;;;;;;;15.45;100.00;96531.59;6166127;23;20009;-88
2023/05/24 09:08:07;;;;;;;11.93;4.67;;;;;;;16.20;100.00;96536.69;6166183;23;20004;-88
2023/05/24 09:10:32;;;;;;;11.50;4.53;;;;;;;16.16;100.00;96545.19;6166143;23;20400;-88
2023/05/24 09:13:01;;;;;;;13.73;4.17;;;;;;;15.90;100.00;96546.53;6165808;23;20008;-88
2023/05/24 09:15:27;;;;;;;13.50;4.23;;;;;;;15.95;100.00;96541.47;6166466;23;20544;-89
2023/05/24 09:17:53;;;;;;;13.43;4.40;;;;;;;15.84;100.00;96535.84;6190657;23;20001;-89
2023/05/24 09:20:19;;;;;;;13.83;4.87;;;;;;;15.89;100.00;96544.88;6165841;23;20008;-88
2023/05/24 09:22:49;;;;;;;11.50;4.80;;;;;;;15.38;100.00;96546.59;6165198;23;20043;-88
2023/05/24 09:25:17;;;;;;;13.40;3.97;;;;;;;15.53;100.00;96547.44;6166089;23;20004;-89
2023/05/24 09:27:49;;;;;;;16.60;4.47;;;;;;;15.83;100.00;96561.53;6190082;23;20008;-88
2023/05/24 09:30:15;;;;;;;8.70;3.63;;;;;;;15.85;100.00;96561.34;6164980;23;20035;-89
2023/05/24 09:32:54;;;;;;;14.10;4.57;;;;;;;15.38;100.00;96551.88;6190319;23;20376;-88
2023/05/24 09:35:20;;;;;;;9.97;3.83;;;;;;;15.88;100.00;96545.88;6190526;23;20032;-88
2023/05/24 09:37:47;;;;;;;13.90;5.07;;;;;;;15.45;100.00;96543.03;6165494;23;20011;-88
2023/05/24 09:40:19;;;;;;;17.10;4.63;;;;;;;15.43;100.00;96552.19;6165484;23;20081;-88
2023/05/24 09:42:45;;;;;;;13.18;4.63;;;;;;;15.74;100.00;96552.03;6190826;23;20032;-88
2023/05/24 09:45:11;;;;;;;11.03;4.07;;;;;;;15.90;100.00;96551.00;6191023;23;20425;-88
2023/05/24 09:47:40;;;;;;;16.67;5.43;;;;;;;16.08;100.00;96553.28;6160814;23;20016;-88
2023/05/24 09:50:12;;;;;;;14.73;4.97;;;;;;;16.10;100.00;96556.56;6163388;23;20029;-88
2023/05/24 09:52:38;;;;;;;16.77;4.80;;;;;;;15.62;100.00;96561.41;6157731;22;20123;-88
2023/05/24 09:55:18;;;;;;;12.60;5.40;;;;;;;15.68;100.00;96564.19;6149800;23;20012;-88
2023/05/24 09:57:49;;;;;;;13.73;5.20;;;;;;;15.77;100.00;96563.09;6146655;23;20009;-88
2023/05/24 10:00:21;;;;;;;14.83;4.77;;;;;;;15.75;100.00;96559.78;6137427;23;20013;-89
2023/05/24 10:03:01;;;;;;;10.27;3.88;;;;;;;15.90;100.00;96564.28;6134503;23;20012;-88
2023/05/24 10:05:27;;;;;;;12.90;3.77;;;;;;;15.68;100.00;96561.53;6134123;23;20070;-88
2023/05/24 10:07:54;;;;;;;13.13;6.27;;;;;;;15.48;100.00;96571.00;6137329;23;20136;-87
2023/05/24 10:10:19;;;;;;;17.37;6.13;;;;;;;15.36;100.00;96569.78;6139277;23;20009;-89
2023/05/24 10:12:46;;;;;;;19.67;6.27;;;;;;;15.21;100.00;96565.28;6140362;23;20016;-89
2023/05/24 10:15:11;;;;;;;13.33;4.87;;;;;;;15.23;100.00;96575.72;6138559;23;20444;-88
2023/05/24 10:17:37;;;;;;;12.97;4.93;;;;;;;15.00;100.00;96563.34;6136917;23;20050;-89
2023/05/24 10:20:07;;;;;;;12.37;4.17;;;;;;;15.47;100.00;96553.47;6141112;23;20012;-88
2023/05/24 10:22:39;;;;;;;12.40;4.83;;;;;;;15.71;100.00;96563.81;6174030;23;20112;-88
2023/05/24 10:25:07;;;;;;;13.33;4.87;;;;;;;15.78;100.00;96563.91;6151531;23;20012;-89
2023/05/24 10:27:33;;;;;;;10.70;4.67;;;;;;;15.78;100.00;96561.25;6145372;23;20013;-88
2023/05/24 10:30:17;;;;;;;16.50;4.47;;;;;;;15.71;100.00;96555.03;6136879;23;20012;-88
2023/05/24 10:32:44;;;;;;;12.63;4.47;;;;;;;15.90;100.00;96561.63;6139485;23;20015;-88
2023/05/24 10:35:13;;;;;;;12.60;4.10;;;;;;;16.20;100.00;96551.78;6146388;23;20005;-89
2023/05/24 10:37:40;;;;;;;13.53;4.53;;;;;;;15.98;100.00;96548.25;6140992;23;20009;-89
2023/05/24 10:40:08;;;;;;;21.67;4.90;;;;;;;15.78;100.00;96540.03;6138301;23;20049;-87
2023/05/24 10:42:35;;;;;;;9.30;4.23;;;;;;;16.53;100.00;96535.38;6139089;23;20012;-88
2023/05/24 10:45:24;;;;;;;13.03;4.20;;;;;;;15.97;100.00;96539.47;6138120;23;20008;-89
2023/05/24 10:47:50;;;;;;;23.13;11.73;;;;;;;16.22;100.00;96534.66;6161261;23;20476;-89
2023/05/24 10:50:17;;;;;;;25.30;12.70;;;;;;;16.19;100.00;96534.19;6173323;23;20004;-89
2023/05/24 10:52:43;;;;;;;14.90;7.87;;;;;;;16.11;100.00;96539.63;6203813;23;20079;-89
2023/05/24 10:55:10;;;;;;;13.40;4.53;;;;;;;16.30;100.00;96531.09;6181001;23;20015;-90
2023/05/24 10:57:38;;;;;;;9.87;3.83;;;;;;;15.95;100.00;96532.69;6183141;23;19989;-90
2023/05/24 11:00:19;;;;;;;10.70;4.13;;;;;;;16.43;100.00;96536.53;6205621;23;20088;-91
2023/05/24 11:02:49;;;;;;;13.03;4.30;;;;;;;16.43;100.00;96536.53;6173211;23;20436;-90
2023/05/24 11:05:15;;;;;;;12.73;4.77;;;;;;;16.38;100.00;96533.59;6170803;23;20004;-89
2023/05/24 11:07:41;;;;;;;11.53;4.60;;;;;;;16.39;100.00;96539.72;6173246;23;20000;-89
2023/05/24 11:10:15;;;;;;;13.30;4.30;;;;;;;16.46;100.00;96530.84;6197485;23;20009;-90
2023/05/24 11:12:43;;;;;;;15.63;4.80;;;;;;;16.18;100.00;96543.19;6170310;23;20011;-90
2023/05/24 11:15:10;;;;;;;18.70;5.60;;;;;;;16.31;100.00;96534.56;6171576;23;20008;-89
2023/05/24 11:18:13;;;;;;;10.30;4.50;;;;;;;16.00;100.00;96543.59;6170309;23;20009;-89
2023/05/24 11:20:45;;;;;;;13.80;4.00;;;;;;;16.20;100.00;96536.69;6170864;23;20012;-89
2023/05/24 11:23:13;;;;;;;6.95;2.88;;;;;;;16.29;100.00;96542.69;6169749;23;20031;-90
2023/05/24 11:25:39;;;;;;;13.07;4.27;;;;;;;15.87;100.00;96535.47;6170532;23;20023;-91
2023/05/24 11:28:12;;;;;;;13.83;4.40;;;;;;;15.53;100.00;96534.19;6168745;23;20013;-90
2023/05/24 11:30:43;;;;;;;12.03;4.03;;;;;;;16.31;100.00;96534.56;6193559;23;20004;-91
2023/05/24 11:33:17;;;;;;;12.10;5.87;;;;;;;16.27;100.00;96526.16;6168963;23;20009;-91
2023/05/24 11:35:44;;;;;;;14.17;7.57;;;;;;;16.40;100.00;96520.16;6193171;23;20004;-90
2023/05/24 11:38:12;;;;;;;23.07;9.53;;;;;;;16.02;100.00;96529.09;6168474;23;20440;-91
2023/05/24 11:40:44;;;;;;;13.53;3.97;;;;;;;16.15;100.00;96525.78;6168957;23;20099;-90
2023/05/24 11:43:17;;;;;;;13.33;3.90;;;;;;;16.10;100.00;96530.03;6194075;23;20004;-91
2023/05/24 11:45:50;;;;;;;11.75;4.20;;;;;;;16.18;100.00;96524.59;6172142;23;20053;-92
2023/05/24 11:48:18;;;;;;;13.07;3.90;;;;;;;15.90;100.00;96530.63;6176035;22;20001;-91
2023/05/24 11:50:49;;;;;;;12.33;4.43;;;;;;;16.52;100.00;96529.25;6151246;23;20044;-90
2023/05/24 11:53:19;;;;;;;12.97;4.17;;;;;;;16.86;100.00;96525.09;6142098;23;20024;-92
2023/05/24 11:55:45;;;;;;;10.77;4.10;;;;;;;16.79;100.00;96527.69;6139686;23;20036;-92
2023/05/24 11:58:20;;;;;;;11.70;3.50;;;;;;;16.43;100.00;96527.72;6142202;23;20037;-91
2023/05/24 12:00:47;;;;;;;10.30;3.87;;;;;;;17.18;98.25;96519.22;6141459;23;20004;-91
2023/05/24 12:03:12;;;;;;;12.77;3.33;;;;;;;16.94;100.00;96524.97;6141516;23;20012;-92
2023/05/24 12:05:38;;;;;;;10.70;3.20;;;;;;;17.50;98.77;96514.31;6140845;23;20008;-92
2023/05/24 12:08:08;;;;;;;11.20;4.00;;;;;;;17.46;84.44;96515.72;6140955;23;20000;-92
2023/05/24 12:10:36;;;;;;;8.48;3.50;;;;;;;17.88;79.63;96517.41;6140565;23;20009;-92
2023/05/24 12:13:17;;;;;;;10.05;3.40;;;;;;;17.39;75.34;96514.88;6141353;23;20005;-92
2023/05/24 12:15:49;;;;;;;12.25;3.38;;;;;;;18.29;72.76;96513.06;6141608;23;20008;-93
2023/05/24 12:18:24;;;;;;;9.13;2.90;;;;;;;17.64;67.50;96517.88;6141429;23;20016;-92
2023/05/24 12:20:51;;;;;;;10.40;3.00;;;;;;;18.04;65.74;96515.41;6141574;23;20325;-92
2023/05/24 12:23:24;;;;;;;11.48;3.65;;;;;;;18.58;69.79;96510.06;6140901;23;20075;-92
2023/05/24 12:25:49;;;;;;;9.63;3.63;;;;;;;18.25;67.48;96514.47;6140814;23;20012;-91
2023/05/24 12:28:20;;;;;;;14.88;4.07;;;;;;;18.65;71.29;96503.91;6141211;23;20009;-92
2023/05/24 12:30:48;;;;;;;13.35;3.63;;;;;;;19.89;61.15;96504.03;6141428;23;20055;-92
2023/05/24 12:33:14;;;;;;;9.65;3.47;;;;;;;20.06;59.54;96500.88;6142233;23;20001;-92
2023/05/24 12:35:41;;;;;;;11.82;4.35;;;;;;;19.25;59.18;96502.09;6140855;23;20009;-92
2023/05/24 12:38:09;;;;;;;11.15;4.45;;;;;;;19.07;63.13;96498.19;6143500;23;20005;-92
2023/05/24 12:40:35;;;;;;;17.58;3.65;;;;;;;20.46;58.31;96493.47;6141198;23;20005;-92
2023/05/24 12:43:02;;;;;;;8.95;3.50;;;;;;;20.52;53.81;96486.47;6140037;23;20005;-92
2023/05/24 12:45:28;;;;;;;10.05;4.20;;;;;;;20.52;48.93;96489.13;6140741;23;20035;-92
2023/05/24 12:47:56;;;;;;;13.07;3.35;;;;;;;20.52;57.13;96489.94;6159425;23;20004;-91
2023/05/24 12:50:24;;;;;;;10.43;3.38;;;;;;;20.02;53.69;96489.81;6168901;23;20486;-93
2023/05/24 12:52:54;;;;;;;10.38;3.60;;;;;;;20.16;59.26;96486.03;6168959;23;20008;-93
2023/05/24 12:55:25;;;;;;;13.73;3.97;;;;;;;20.02;60.69;96495.97;6168455;23;20044;-91
2023/05/24 12:57:54;;;;;;;11.35;3.20;;;;;;;20.17;58.54;96482.31;6168715;23;20008;-93
2023/05/24 13:00:23;;;;;;;10.23;3.13;;;;;;;19.80;59.16;96488.44;6169213;23;20012;-93
2023/05/24 13:02:51;;;;;;;10.40;4.05;;;;;;;21.21;59.55;96472.13;6168724;23;20022;-92
2023/05/24 13:05:17;;;;;;;7.18;3.03;;;;;;;21.65;48.68;96472.94;6169022;23;20000;-92
2023/05/24 13:07:44;;;;;;;8.98;3.28;;;;;;;20.97;51.90;96475.66;6170487;23;20024;-91
2023/05/24 13:10:11;;;;;;;8.25;3.05;;;;;;;21.08;45.98;96477.59;6171743;23;20012;-91
2023/05/24 13:12:37;;;;;;;8.77;2.97;;;;;;;20.68;47.59;96472.56;6171774;23;20004;-92
2023/05/24 13:15:07;;;;;;;9.73;3.33;;;;;;;21.53;55.83;96469.34;6172083;23;20020;-92
2023/05/24 13:17:33;;;;;;;11.38;3.47;;;;;;;20.68;49.71;96468.03;6170991;23;20000;-92
2023/05/24 13:20:09;;;;;;;7.72;2.72;;;;;;;21.93;43.93;96459.03;6195580;23;20014;-90
2023/05/24 13:22:36;;;;;;;13.68;3.30;;;;;;;21.66;41.48;96458.50;6197470;23;20081;-91
2023/05/24 13:25:06;;;;;;;9.10;3.30;;;;;;;22.09;38.59;96447.66;6171664;23;20016;-91
2023/05/24 13:27:32;;;;;;;10.43;3.03;;;;;;;22.38;40.79;96457.84;6171189;23;19999;-91
2023/05/24 13:29:58;;;;;;;9.18;3.10;;;;;;;22.54;40.44;96454.50;6170733;23;20009;-91
2023/05/24 13:32:24;;;;;;;10.18;3.20;;;;;;;22.80;39.79;96443.38;6169199;23;20035;-91
2023/05/24 13:34:50;;;;;;;12.20;3.72;;;;;;;22.56;37.38;96447.03;6167308;23;20012;-91
2023/05/24 13:37:18;;;;;;;11.25;3.67;;;;;;;22.72;40.24;96442.88;6168397;23;20005;-91
2023/05/24 13:39:44;;;;;;;11.27;4.55;;;;;;;22.17;37.79;96445.78;6168197;23;20032;-91
2023/05/24 13:42:10;;;;;;;9.98;3.53;;;;;;;22.14;40.82;96449.69;6171387;23;20441;-91
2023/05/24 13:44:36;;;;;;;11.13;4.15;;;;;;;22.12;39.87;96436.50;6180391;22;20016;-91
2023/05/24 13:47:02;;;;;;;8.30;3.53;;;;;;;21.42;41.33;96447.66;6189945;23;20020;-90
2023/05/24 15:25:12;;;;;;;9.55;3.17;;;;;;;20.52;41.27;96428.50;6209473;23;20039;-91
2023/05/24 15:28:49;;;;;;;6.93;2.63;;;;;;;20.48;40.77;96430.75;6173313;23;20345;-91
2023/05/24 15:36:18;;;;;;;8.45;2.40;;;;;;;20.58;44.18;96424.16;6097778;23;20026;-90
2023/05/24 15:40:04;;;;;;;10.45;2.60;;;;;;;20.82;42.97;96428.66;6079914;23;20029;-91
2023/05/24 15:43:44;;;;;;;7.25;2.53;;;;;;;20.36;43.78;96424.50;5915426;24;20053;-91
2023/05/24 15:47:06;;;;;;;5.70;2.63;;;;;;;19.72;48.89;96430.81;5881089;24;20143;-90
